Time;durP1;ratioP1;P1;durP2;ratioP2;P2;SDS_P1;SDS_P2;PMS_P1;PMS_P2;Temp;Humidity;BMP_temperature;BMP_pressure;BME280_temperature;BME280_humidity;BME280_pressure;Samples;Min_cycle;Max_cycle;Signal;HPM_P1;HPM_P2
2023/05/31 00:00:05;;;;;;;14.00;5.73;;;7.20;99.90;6.50;101358;;;;571912;247;24092;-83
2023/05/31 00:02:29;;;;;;;12.40;5.83;;;7.30;99.90;6.40;101348;;;;571351;247;24091;-83
2023/05/31 00:04:57;;;;;;;9.60;4.97;;;7.30;99.90;6.40;101359;;;;571690;247;24104;-84
2023/05/31 00:07:25;;;;;;;12.43;5.03;;;7.10;99.90;6.30;101351;;;;572131;247;24078;-83
2023/05/31 00:09:54;;;;;;;9.17;5.33;;;7.20;99.90;6.30;101363;;;;572149;247;24129;-83
2023/05/31 00:12:21;;;;;;;12.88;4.87;;;7.20;99.90;6.30;101352;;;;567266;247;35526;-83
2023/05/31 00:14:49;;;;;;;7.37;3.70;;;7.00;99.90;6.30;101351;;;;572955;246;24107;-85
2023/05/31 00:17:17;;;;;;;9.03;3.47;;;6.90;99.90;6.30;101367;;;;572879;246;24120;-84
2023/05/31 00:19:45;;;;;;;9.33;4.23;;;7.30;99.90;6.40;101361;;;;572937;246;24079;-82
2023/05/31 00:22:16;;;;;;;10.77;5.80;;;7.20;99.90;6.40;101372;;;;572914;246;24128;-81
2023/05/31 00:24:41;;;;;;;16.93;5.50;;;7.20;99.90;6.40;101362;;;;572461;246;24087;-83
2023/05/31 00:27:10;;;;;;;12.57;5.87;;;7.30;99.90;6.40;101372;;;;572564;246;24076;-84
2023/05/31 00:29:38;;;;;;;14.53;5.63;;;7.30;99.90;6.40;101363;;;;572663;246;24094;-83
2023/05/31 00:32:07;;;;;;;10.67;5.30;;;7.30;99.90;6.40;101369;;;;572623;246;24074;-84
2023/05/31 00:34:35;;;;;;;14.87;5.67;;;7.30;99.90;6.50;101370;;;;581165;247;24088;-82
2023/05/31 00:37:02;;;;;;;9.27;5.20;;;7.30;99.90;6.50;101369;;;;572382;247;24082;-83
2023/05/31 00:39:30;;;;;;;19.37;5.57;;;7.30;99.90;6.60;101377;;;;572004;247;24082;-84
2023/05/31 00:41:59;;;;;;;13.03;6.30;;;7.40;99.90;6.60;101377;;;;572073;247;24084;-83
2023/05/31 00:44:27;;;;;;;14.57;6.20;;;7.40;99.90;6.70;101371;;;;571958;247;24085;-80
2023/05/31 00:46:58;;;;;;;14.03;6.50;;;7.40;99.90;6.70;101378;;;;571917;247;24218;-80
2023/05/31 00:49:22;;;;;;;13.83;6.60;;;7.40;99.90;6.70;101365;;;;571734;247;24106;-81
2023/05/31 00:51:50;;;;;;;11.37;6.20;;;7.50;99.90;6.70;101379;;;;572138;247;24136;-84
2023/05/31 00:54:22;;;;;;;13.63;6.30;;;7.50;99.90;6.70;101368;;;;572195;247;24148;-82
2023/05/31 00:56:48;;;;;;;11.10;6.37;;;7.50;99.90;6.70;101377;;;;572009;247;24104;-82
2023/05/31 00:59:20;;;;;;;20.17;7.00;;;7.50;99.90;6.70;101372;;;;571855;247;24117;-83
2023/05/31 01:01:45;;;;;;;13.53;7.30;;;7.50;99.90;6.70;101368;;;;571789;247;24122;-83
2023/05/31 01:04:16;;;;;;;17.63;6.63;;;7.50;99.90;6.60;101375;;;;571655;247;24087;-84
2023/05/31 01:06:40;;;;;;;12.70;7.20;;;7.50;99.90;6.60;101376;;;;571610;247;24104;-85
2023/05/31 01:09:09;;;;;;;13.73;7.20;;;7.40;99.90;6.60;101372;;;;572144;247;24098;-84
2023/05/31 01:12:07;;;;;;;16.07;7.37;;;7.30;99.90;6.50;101373;;;;572129;247;24079;-84
2023/05/31 01:14:41;;;;;;;16.17;7.57;;;7.30;99.90;6.50;101373;;;;572146;247;24080;-83
2023/05/31 01:17:20;;;;;;;11.40;6.77;;;7.30;99.90;6.50;101374;;;;572037;247;24098;-82
2023/05/31 01:19:48;;;;;;;12.82;6.32;;;7.30;99.90;6.50;101375;;;;566028;247;35545;-84
2023/05/31 01:22:23;;;;;;;9.40;4.77;;;7.30;99.90;6.50;101385;;;;571784;247;24110;-84
2023/05/31 01:25:01;;;;;;;10.10;4.70;;;7.40;99.90;6.60;101381;;;;572023;247;24091;-78
2023/05/31 01:27:31;;;;;;;11.00;4.93;;;7.50;99.90;6.60;101379;;;;574904;246;24078;-80
2023/05/31 01:29:56;;;;;;;7.20;4.67;;;7.60;99.90;6.50;101376;;;;572881;246;24098;-80
2023/05/31 01:32:24;;;;;;;13.10;6.47;;;7.30;99.90;6.50;101378;;;;572721;246;24096;-81
2023/05/31 01:34:52;;;;;;;12.70;6.93;;;7.40;99.90;6.40;101375;;;;572431;246;24098;-83
2023/05/31 01:37:20;;;;;;;13.20;7.63;;;7.30;99.90;6.40;101371;;;;571412;246;24107;-82
2023/05/31 01:39:52;;;;;;;10.40;6.47;;;7.30;99.90;6.40;101371;;;;572621;246;24076;-83
2023/05/31 01:42:17;;;;;;;13.83;6.63;;;7.30;99.90;6.40;101383;;;;572475;246;24145;-82
2023/05/31 01:44:45;;;;;;;12.33;5.70;;;7.20;99.90;6.40;101375;;;;572433;247;24098;-81
2023/05/31 01:47:13;;;;;;;10.83;6.17;;;7.20;99.90;6.40;101376;;;;572388;247;24078;-83
2023/05/31 01:49:44;;;;;;;15.57;6.47;;;7.20;99.90;6.40;101376;;;;581065;247;24083;-81
2023/05/31 01:52:09;;;;;;;13.10;6.90;;;7.20;99.90;6.40;101372;;;;571948;247;25143;-82
2023/05/31 01:54:37;;;;;;;17.93;7.33;;;7.30;99.90;6.40;101376;;;;571776;247;24160;-81
2023/05/31 01:57:05;;;;;;;12.93;7.17;;;7.00;99.90;6.30;101377;;;;571958;243;24157;-83
2023/05/31 01:59:36;;;;;;;12.80;6.93;;;7.10;99.90;6.30;101369;;;;574897;247;24075;-84
2023/05/31 02:02:08;;;;;;;10.33;6.40;;;7.10;99.90;6.20;101373;;;;571885;247;24111;-84
2023/05/31 02:04:32;;;;;;;13.00;6.60;;;7.00;99.90;6.20;101377;;;;571651;247;24089;-84
2023/05/31 02:07:00;;;;;;;11.33;6.53;;;7.00;99.90;6.20;101365;;;;571763;247;24104;-86
2023/05/31 02:09:29;;;;;;;13.17;7.50;;;7.00;99.90;6.20;101358;;;;571694;247;24094;-84
2023/05/31 02:11:57;;;;;;;15.20;6.77;;;6.30;99.90;6.20;101358;;;;572132;247;24167;-83
2023/05/31 02:14:25;;;;;;;13.70;6.30;;;6.90;99.90;6.10;101364;;;;572160;247;24098;-78
2023/05/31 02:16:53;;;;;;;12.17;7.20;;;6.90;99.90;6.10;101363;;;;572185;247;24120;-77
2023/05/31 02:19:25;;;;;;;11.90;6.20;;;6.90;99.90;6.10;101364;;;;572191;247;24098;-80
2023/05/31 02:21:50;;;;;;;15.00;6.53;;;6.90;99.90;6.10;101373;;;;571434;247;24098;-80
2023/05/31 02:24:18;;;;;;;12.77;6.77;;;6.90;99.90;6.10;101363;;;;571770;247;24071;-80
2023/05/31 02:26:46;;;;;;;13.43;5.83;;;7.00;99.90;6.10;101372;;;;571700;247;24121;-85
2023/05/31 02:29:14;;;;;;;14.90;7.57;;;6.60;99.90;6.10;101372;;;;571866;247;24085;-82
2023/05/31 02:31:42;;;;;;;9.73;6.57;;;6.90;99.90;6.20;101363;;;;571765;247;24115;-83
2023/05/31 02:34:10;;;;;;;12.77;6.93;;;6.90;99.90;6.10;101367;;;;572128;247;24093;-82
2023/05/31 02:36:37;;;;;;;11.00;6.90;;;6.90;99.90;6.10;101369;;;;571740;247;24063;-79
2023/05/31 02:39:05;;;;;;;14.03;6.87;;;6.90;99.90;6.10;101359;;;;573068;246;24165;-77
2023/05/31 02:41:34;;;;;;;15.93;7.27;;;6.90;99.90;6.10;101365;;;;572821;246;24069;-80
2023/05/31 02:44:02;;;;;;;11.20;6.80;;;7.40;99.90;6.10;101360;;;;572972;246;24099;-80
2023/05/31 02:46:30;;;;;;;15.43;6.83;;;7.30;99.90;6.10;101360;;;;572887;246;24071;-80
2023/05/31 02:48:58;;;;;;;10.00;5.97;;;6.90;99.90;6.20;101362;;;;572659;246;24091;-81
2023/05/31 02:51:26;;;;;;;12.37;5.77;;;7.00;99.90;6.20;101361;;;;572703;246;24084;-82
2023/05/31 02:53:54;;;;;;;12.13;6.50;;;7.00;99.90;6.30;101350;;;;572378;246;24090;-83
2023/05/31 02:56:23;;;;;;;16.77;6.87;;;7.10;99.90;6.30;101352;;;;572141;247;24114;-84
2023/05/31 02:58:53;;;;;;;14.40;6.53;;;7.10;99.90;6.30;101350;;;;572105;247;24105;-84
2023/05/31 03:01:19;;;;;;;12.53;6.13;;;;;6.40;101357;;;;565483;249;35512;-78
2023/05/31 03:03:47;;;;;;;12.55;5.62;;;7.30;99.90;6.40;101360;;;;567256;247;35300;-78
2023/05/31 03:06:19;;;;;;;10.13;6.25;;;7.10;99.90;6.50;101363;;;;566977;247;35505;-79
2023/05/31 03:08:43;;;;;;;5.83;4.03;;;7.20;99.90;6.50;101367;;;;571660;247;24121;-78
2023/05/31 03:11:11;;;;;;;13.40;4.33;;;7.40;99.90;6.60;101358;;;;580878;247;24075;-83
2023/05/31 03:13:39;;;;;;;11.27;4.63;;;7.40;99.90;6.60;101358;;;;572368;247;24086;-83
2023/05/31 03:16:07;;;;;;;10.33;3.53;;;7.60;99.90;6.70;101356;;;;572251;247;24096;-85
2023/05/31 03:18:35;;;;;;;11.40;3.73;;;8.50;99.90;6.80;101346;;;;572300;247;24085;-84
2023/05/31 03:21:03;;;;;;;8.40;3.77;;;7.90;99.90;7.20;101345;;;;572325;247;24151;-84
2023/05/31 03:23:31;;;;;;;6.17;4.17;;;8.80;99.90;8.10;101357;;;;571866;247;24090;-84
2023/05/31 03:25:59;;;;;;;8.70;4.30;;;9.60;99.90;9.10;101351;;;;571751;247;24075;-84
2023/05/31 03:28:27;;;;;;;8.10;4.60;;;10.40;99.90;10.00;101352;;;;571854;247;24106;-83
2023/05/31 03:30:55;;;;;;;8.63;4.00;;;10.50;99.90;10.60;101360;;;;571882;247;24101;-83
2023/05/31 03:33:23;;;;;;;7.10;4.30;;;11.20;99.90;11.40;101361;;;;571933;247;24082;-83
2023/05/31 03:35:51;;;;;;;13.30;4.47;;;12.50;99.90;12.00;101350;;;;571752;247;24064;-85
2023/05/31 03:38:19;;;;;;;7.77;4.10;;;13.20;99.90;12.70;101362;;;;571765;247;24083;-81
2023/05/31 03:40:47;;;;;;;10.60;5.03;;;13.80;99.90;13.20;101363;;;;571873;247;24118;-82
2023/05/31 03:43:15;;;;;;;10.93;5.10;;;14.40;99.90;13.80;101359;;;;571864;247;24095;-82
2023/05/31 03:45:43;;;;;;;10.13;4.57;;;15.10;99.90;14.40;101367;;;;571601;247;24072;-78
2023/05/31 03:48:11;;;;;;;7.97;4.30;;;15.80;99.90;15.10;101366;;;;571775;247;24079;-80
2023/05/31 03:50:42;;;;;;;9.77;4.10;;;15.80;99.90;15.80;101364;;;;571337;246;24106;-79
2023/05/31 03:53:10;;;;;;;7.57;4.53;;;17.40;99.90;16.60;101362;;;;581565;246;23095;-79
2023/05/31 03:55:38;;;;;;;13.20;4.93;;;17.40;99.90;17.30;101370;;;;571170;246;23115;-79
2023/05/31 03:58:06;;;;;;;8.13;3.80;;;18.70;99.90;17.80;101370;;;;572684;246;24113;-79
2023/05/31 04:00:36;;;;;;;7.40;4.03;;;19.30;99.90;18.40;101367;;;;572190;246;24074;-79
2023/05/31 04:03:03;;;;;;;9.73;3.70;;;19.30;99.90;19.10;101360;;;;572285;246;24071;-79
2023/05/31 04:05:31;;;;;;;9.07;3.40;;;20.00;99.90;19.70;101361;;;;578711;246;23113;-80
2023/05/31 04:08:02;;;;;;;12.07;3.90;;;20.70;99.90;20.30;101356;;;;571976;247;24158;-83
2023/05/31 04:10:27;;;;;;;7.40;4.03;;;21.90;99.90;20.80;101358;;;;569623;247;24096;-79
2023/05/31 04:12:55;;;;;;;10.63;4.20;;;21.80;99.90;21.50;101342;;;;571885;247;24112;-82
2023/05/31 04:15:23;;;;;;;8.30;2.80;;;22.50;99.90;22.10;101347;;;;571923;247;24120;-81
2023/05/31 04:17:53;;;;;;;3.17;2.50;;;23.20;99.90;22.80;101336;;;;570246;247;23151;-83
2023/05/31 04:20:18;;;;;;;9.20;3.37;;;23.90;99.90;23.40;101331;;;;572040;247;24100;-81
2023/05/31 04:22:46;;;;;;;5.57;2.70;;;24.50;99.90;23.70;101334;;;;572033;247;23100;-80
2023/05/31 04:25:17;;;;;;;4.83;2.90;;;25.70;86.90;24.80;101328;;;;572327;247;23114;-79
2023/05/31 04:27:47;;;;;;;7.27;3.07;;;26.30;81.70;25.10;101325;;;;571989;247;23103;-80
2023/05/31 04:30:12;;;;;;;12.37;3.37;;;26.20;80.80;25.70;101322;;;;572019;247;23097;-83
2023/05/31 04:32:40;;;;;;;10.03;3.20;;;26.80;74.70;25.80;101325;;;;572125;247;23073;-78
2023/05/31 04:35:08;;;;;;;8.87;3.13;;;27.10;73.50;26.20;101328;;;;572125;247;24125;-79
2023/05/31 04:37:36;;;;;;;4.70;2.50;;;27.50;71.60;26.70;101317;;;;572135;247;23131;-80
2023/05/31 04:40:09;;;;;;;8.05;2.70;;;28.10;69.10;27.20;101324;;;;572102;247;23158;-80
2023/05/31 04:42:31;;;;;;;13.95;3.65;;;28.50;66.20;27.90;101315;;;;571540;247;23084;-81
2023/05/31 04:45:01;;;;;;;9.50;3.53;;;29.20;63.00;28.40;101316;;;;572141;247;23115;-80
2023/05/31 04:47:33;;;;;;;7.55;2.87;;;29.80;60.90;29.20;101326;;;;571685;247;23111;-81
2023/05/31 04:50:01;;;;;;;12.07;2.78;;;30.50;59.10;29.80;101329;;;;572067;247;23101;-80
2023/05/31 04:52:29;;;;;;;10.25;3.15;;;31.20;55.60;30.20;101319;;;;575824;247;23088;-79
2023/05/31 04:54:59;;;;;;;9.27;3.08;;;31.60;54.50;30.90;101323;;;;581396;247;23096;-80
2023/05/31 04:57:24;;;;;;;5.90;2.47;;;32.20;53.70;31.50;101321;;;;571843;243;24108;-84
2023/05/31 04:59:52;;;;;;;7.47;2.92;;;32.80;52.50;32.00;101328;;;;571542;247;23098;-78
2023/05/31 05:02:21;;;;;;;8.30;3.40;;;33.40;50.50;32.30;101323;;;;573131;246;23085;-79
2023/05/31 05:04:48;;;;;;;2.83;1.98;;;33.80;49.70;32.70;101319;;;;572689;246;23104;-79
2023/05/31 05:07:16;;;;;;;7.28;2.33;;;34.00;48.40;33.00;101325;;;;571182;246;23076;-81
2023/05/31 05:09:44;;;;;;;3.95;2.12;;;34.40;47.20;33.50;101325;;;;572276;246;23093;-80
2023/05/31 05:12:12;;;;;;;2.12;2.03;;;34.80;46.60;33.90;101328;;;;572153;246;23096;-79
2023/05/31 05:14:40;;;;;;;5.37;2.30;;;35.20;45.10;34.40;101330;;;;572312;246;23192;-79
2023/05/31 05:17:10;;;;;;;6.22;2.62;;;35.60;44.50;34.20;101328;;;;572218;246;23099;-78
2023/05/31 05:19:36;;;;;;;9.48;3.62;;;35.50;43.80;33.80;101321;;;;580692;246;23122;-81
2023/05/31 05:22:09;;;;;;;15.98;3.65;;;35.40;44.00;34.20;101324;;;;571871;247;23126;-79
2023/05/31 05:24:32;;;;;;;18.40;3.45;;;35.30;43.80;34.90;101329;;;;572081;247;23096;-79
2023/05/31 05:27:00;;;;;;;8.48;3.35;;;36.00;43.60;35.50;101327;;;;572349;247;23128;-81
2023/05/31 05:29:28;;;;;;;7.95;2.70;;;36.40;43.70;35.30;101332;;;;572540;247;24115;-83
2023/05/31 05:31:56;;;;;;;21.00;3.30;;;36.50;41.80;34.00;101328;;;;572539;247;23093;-83
2023/05/31 05:34:25;;;;;;;5.15;2.95;;;34.40;43.10;33.10;101323;;;;572491;247;23096;-83
2023/05/31 05:36:53;;;;;;;7.28;2.97;;;34.10;43.10;33.20;101325;;;;572295;247;23094;-84
2023/05/31 05:39:21;;;;;;;6.68;3.22;;;34.10;43.70;33.50;101325;;;;572202;247;23089;-84
2023/05/31 05:41:49;;;;;;;3.75;2.22;;;34.30;43.30;33.90;101321;;;;572133;247;23107;-82
2023/05/31 05:44:17;;;;;;;12.55;4.15;;;34.60;43.00;34.30;101316;;;;572039;247;23111;-82
2023/05/31 05:46:45;;;;;;;12.63;3.35;;;35.00;42.80;34.70;101320;;;;572093;247;24072;-84
2023/05/31 05:49:13;;;;;;;13.38;3.42;;;35.40;42.40;35.30;101320;;;;571892;247;24107;-83
2023/05/31 05:51:41;;;;;;;7.30;3.25;;;35.90;41.30;35.80;101314;;;;571734;247;23096;-83
2023/05/31 05:54:09;;;;;;;6.53;2.67;;;36.40;41.20;36.20;101313;;;;571731;247;23118;-81
2023/05/31 05:56:37;;;;;;;11.85;3.85;;;36.80;41.00;36.80;101308;;;;567168;247;35369;-83
2023/05/31 05:59:05;;;;;;;40.63;7.20;;;37.40;40.30;36.60;101312;;;;571982;247;23144;-84
2023/05/31 06:01:33;;;;;;;17.23;3.35;;;37.30;39.60;36.40;101309;;;;572178;247;23096;-83
2023/05/31 06:04:00;;;;;;;11.88;2.80;;;37.10;39.60;35.90;101314;;;;572322;247;23120;-80
2023/05/31 06:06:28;;;;;;;7.37;2.80;;;36.70;39.30;35.90;101311;;;;572292;247;24131;-83
2023/05/31 06:08:56;;;;;;;7.18;2.55;;;36.60;39.80;36.40;101302;;;;572172;247;23098;-80
2023/05/31 06:11:25;;;;;;;12.32;3.83;;;37.50;38.70;37.10;101304;;;;572216;247;23152;-81
2023/05/31 06:13:57;;;;;;;4.00;2.35;;;38.30;37.80;38.00;101308;;;;573501;246;23086;-81
2023/05/31 06:16:28;;;;;;;5.85;2.62;;;38.20;37.70;38.30;101313;;;;573100;246;24144;-83
2023/05/31 06:18:53;;;;;;;7.43;2.33;;;38.70;37.50;38.90;101308;;;;580553;246;23122;-83
2023/05/31 06:21:21;;;;;;;4.18;2.37;;;40.00;36.30;39.70;101303;;;;561835;251;27349;-80
2023/05/31 06:23:49;;;;;;;4.85;2.35;;;40.90;35.30;40.40;101313;;;;557184;251;46513;-82
2023/05/31 06:26:17;;;;;;;7.70;2.47;;;40.70;35.10;40.90;101310;;;;562026;251;23128;-82
2023/05/31 06:28:45;;;;;;;12.27;2.62;;;41.30;34.90;41.60;101309;;;;562069;251;23097;-82
2023/05/31 06:31:13;;;;;;;18.85;3.83;;;41.90;34.50;42.10;101301;;;;561748;251;23209;-83
2023/05/31 06:33:41;;;;;;;7.22;2.17;;;42.40;33.70;42.70;101303;;;;561807;251;24184;-83
2023/05/31 06:36:09;;;;;;;10.52;2.87;;;42.90;33.10;43.30;101295;;;;561727;251;23163;-83
2023/05/31 06:38:37;;;;;;;35.22;4.47;;;43.60;33.30;43.90;101294;;;;561791;251;23113;-82
2023/05/31 06:41:08;;;;;;;20.15;2.92;;;44.20;31.70;44.40;101292;;;;561746;251;23173;-83
2023/05/31 06:43:33;;;;;;;18.05;2.83;;;44.70;31.40;44.90;101295;;;;561474;251;23162;-83
2023/05/31 06:46:01;;;;;;;28.62;4.78;;;45.60;30.50;45.30;101300;;;;561763;251;24214;-83
2023/05/31 06:48:30;;;;;;;5.25;1.70;;;45.90;30.30;45.60;101301;;;;559968;251;24160;-82
2023/05/31 06:50:58;;;;;;;7.87;2.00;;;45.80;29.70;45.60;101294;;;;561102;251;23184;-83
2023/05/31 06:53:26;;;;;;;16.45;2.60;;;45.80;29.80;45.80;101292;;;;561544;251;24149;-82
2023/05/31 06:55:54;;;;;;;19.37;3.03;;;46.10;29.50;45.40;101292;;;;561486;251;23191;-84
2023/05/31 06:58:24;;;;;;;6.05;2.10;;;45.80;29.20;45.10;101286;;;;561632;250;23133;-83
2023/05/31 07:00:49;;;;;;;4.10;2.17;;;45.50;29.60;45.50;101279;;;;560183;251;23138;-83
2023/05/31 07:03:17;;;;;;;12.88;2.92;;;45.70;29.40;45.40;101285;;;;576210;247;23110;-83
2023/05/31 07:05:46;;;;;;;9.57;2.33;;;45.80;29.00;45.60;101281;;;;561516;251;23111;-83
2023/05/31 07:08:15;;;;;;;5.87;1.85;;;46.20;28.80;46.10;101289;;;;561547;251;23151;-82
2023/05/31 07:10:45;;;;;;;10.32;2.00;;;46.20;28.70;46.20;101288;;;;561499;251;23201;-83
2023/05/31 07:13:11;;;;;;;21.55;4.32;;;46.50;29.10;46.60;101285;;;;561968;251;23180;-82
2023/05/31 07:15:39;;;;;;;29.50;4.57;;;46.90;28.10;46.70;101284;;;;576262;247;23137;-83
2023/05/31 07:18:07;;;;;;;5.40;2.08;;;47.00;28.10;46.90;101281;;;;561420;251;23140;-83
2023/05/31 07:20:35;;;;;;;9.32;2.40;;;47.10;28.20;47.10;101282;;;;556315;251;46393;-84
2023/05/31 07:23:03;;;;;;;17.40;2.92;;;47.30;27.90;47.50;101274;;;;561724;251;23113;-83
2023/05/31 07:25:31;;;;;;;5.75;1.60;;;47.70;27.70;47.70;101275;;;;562721;251;23153;-83
2023/05/31 07:27:59;;;;;;;10.50;2.87;;;48.00;27.40;47.70;101281;;;;563010;251;23156;-83
2023/05/31 07:30:27;;;;;;;17.48;2.75;;;48.00;27.30;47.10;101265;;;;563115;251;23110;-82
2023/05/31 07:32:55;;;;;;;3.47;1.58;;;47.60;27.50;47.30;101264;;;;562596;251;23103;-83
2023/05/31 07:35:23;;;;;;;23.23;2.65;;;47.60;27.60;47.40;101261;;;;570544;250;23134;-84
2023/05/31 07:37:51;;;;;;;20.50;2.65;;;47.60;27.70;47.30;101268;;;;562042;251;23117;-83
2023/05/31 07:40:18;;;;;;;5.15;2.10;;;47.60;27.80;46.30;101266;;;;562283;251;23126;-83
2023/05/31 07:42:47;;;;;;;2.12;1.60;;;46.90;27.30;45.00;101264;;;;562400;251;23105;-83
2023/05/31 07:45:14;;;;;;;8.75;2.03;;;45.70;27.80;44.60;101255;;;;562763;251;23192;-83
2023/05/31 07:47:42;;;;;;;9.63;2.42;;;45.00;28.40;44.40;101258;;;;577246;247;23210;-83
2023/05/31 07:50:10;;;;;;;7.45;2.20;;;44.60;28.70;44.60;101251;;;;562447;251;23204;-82
2023/05/31 07:52:38;;;;;;;14.80;3.08;;;44.70;28.90;44.40;101248;;;;561808;251;23146;-83
2023/05/31 07:55:11;;;;;;;7.12;2.28;;;44.50;28.70;44.50;101244;;;;566555;251;23115;-83
2023/05/31 07:57:35;;;;;;;9.82;2.40;;;44.50;29.20;44.20;101240;;;;564069;250;23118;-82
2023/05/31 08:00:03;;;;;;;6.28;2.15;;;44.40;29.00;44.40;101243;;;;561413;251;23164;-83
2023/05/31 08:02:31;;;;;;;25.27;5.15;;;44.40;29.20;44.30;101240;;;;561063;251;23128;-82
2023/05/31 08:05:01;;;;;;;4.97;2.47;;;44.40;28.90;44.00;101245;;;;570278;251;23128;-81
2023/05/31 08:07:26;;;;;;;22.95;4.55;;;44.10;29.10;43.90;101233;;;;575796;247;23094;-82
2023/05/31 08:09:54;;;;;;;5.85;2.20;;;44.10;29.20;44.00;101241;;;;561077;251;23193;-82
2023/05/31 08:12:22;;;;;;;9.82;3.12;;;44.20;29.40;44.20;101225;;;;561195;251;24551;-82
2023/05/31 08:14:51;;;;;;;10.38;2.90;;;44.80;29.30;44.90;101240;;;;561063;251;23144;-83
2023/05/31 08:17:20;;;;;;;11.68;2.55;;;45.00;28.90;45.00;101228;;;;561273;251;23178;-81
2023/05/31 08:19:48;;;;;;;6.35;2.08;;;45.40;29.50;45.40;101223;;;;566040;251;23124;-82
2023/05/31 08:22:17;;;;;;;15.93;2.72;;;45.90;28.30;46.00;101228;;;;561103;251;23135;-83
2023/05/31 08:24:46;;;;;;;8.07;2.30;;;46.50;28.40;46.40;101219;;;;561082;251;23111;-82
2023/05/31 08:27:14;;;;;;;82.80;8.25;;;46.40;28.30;46.60;101220;;;;561043;251;23139;-83
2023/05/31 08:29:42;;;;;;;24.35;4.18;;;46.80;28.20;47.10;101215;;;;561505;251;23191;-83
2023/05/31 08:32:09;;;;;;;9.23;2.37;;;47.30;28.10;47.50;101213;;;;561477;251;23124;-82
2023/05/31 08:34:37;;;;;;;14.60;2.90;;;47.70;27.80;47.20;101208;;;;561496;251;23137;-82
2023/05/31 08:37:05;;;;;;;14.68;2.53;;;47.50;27.90;46.50;101204;;;;562823;251;23108;-83
2023/05/31 08:39:33;;;;;;;41.78;5.12;;;47.00;28.20;46.60;101205;;;;557634;251;35484;-82
2023/05/31 08:42:01;;;;;;;4.70;1.80;;;47.10;28.10;46.80;101213;;;;562371;251;23122;-83
2023/05/31 08:44:33;;;;;;;6.50;1.95;;;47.30;27.90;46.90;101201;;;;561839;251;23126;-81
2023/05/31 08:47:15;;;;;;;6.80;2.83;;;47.40;27.70;46.60;101209;;;;570233;251;23113;-83
2023/05/31 08:49:43;;;;;;;2.85;1.40;;;47.30;27.90;45.80;101202;;;;576735;245;23101;-83
2023/05/31 08:52:11;;;;;;;5.47;1.83;;;46.70;27.90;45.00;101202;;;;562020;251;23113;-83
2023/05/31 08:54:39;;;;;;;5.75;1.67;;;46.10;27.90;45.40;101209;;;;561460;251;23123;-82
2023/05/31 08:57:09;;;;;;;4.97;1.67;;;45.90;28.70;45.80;101202;;;;561504;247;23122;-81
2023/05/31 08:59:36;;;;;;;4.80;1.73;;;46.40;28.30;45.10;101192;;;;572806;250;23131;-80
2023/05/31 09:02:02;;;;;;;20.23;3.95;;;46.00;28.60;44.20;101195;;;;561731;251;23122;-80
2023/05/31 09:04:30;;;;;;;16.25;2.85;;;45.20;28.20;44.30;101195;;;;559584;251;23130;-80
2023/05/31 09:07:02;;;;;;;6.55;1.95;;;44.90;28.80;45.60;101199;;;;561776;251;23152;-82
2023/05/31 09:09:26;;;;;;;15.65;2.30;;;45.90;28.50;46.70;101182;;;;561479;251;23154;-80
2023/05/31 09:11:54;;;;;;;22.58;4.50;;;47.10;28.40;47.50;101193;;;;561544;251;24187;-80
2023/05/31 09:14:22;;;;;;;6.30;2.03;;;47.90;27.80;48.20;101185;;;;561010;251;23165;-81
2023/05/31 09:16:50;;;;;;;6.87;2.08;;;48.80;27.70;48.40;101182;;;;561500;251;23129;-82
2023/05/31 09:19:18;;;;;;;2.97;1.45;;;49.20;27.30;48.90;101185;;;;561351;251;23141;-82
2023/05/31 09:21:48;;;;;;;17.50;2.72;;;49.70;27.70;49.40;101181;;;;565006;251;35440;-83
2023/05/31 09:24:19;;;;;;;3.53;1.75;;;50.50;26.90;49.40;101176;;;;560573;251;23133;-81
2023/05/31 09:26:51;;;;;;;2.37;1.50;;;50.60;27.00;49.60;101177;;;;560673;251;23145;-81
2023/05/31 09:29:20;;;;;;;4.12;2.03;;;50.60;27.00;50.00;101173;;;;561149;251;23145;-83
2023/05/31 09:31:47;;;;;;;3.28;2.00;;;50.80;26.70;50.20;101164;;;;569903;251;23141;-82
2023/05/31 09:34:25;;;;;;;23.08;3.12;;;51.20;26.50;50.30;101174;;;;576188;247;23118;-84
2023/05/31 09:36:52;;;;;;;30.65;4.87;;;51.40;26.40;49.40;101169;;;;561345;251;23268;-83
2023/05/31 09:39:23;;;;;;;11.95;2.72;;;50.70;26.90;49.20;101168;;;;561532;251;23129;-83
2023/05/31 09:41:54;;;;;;;17.15;2.42;;;50.40;26.60;49.10;101175;;;;561524;251;23125;-82
2023/05/31 09:44:21;;;;;;;14.40;2.90;;;50.40;26.70;48.90;101175;;;;569751;251;24164;-83
2023/05/31 09:46:51;;;;;;;10.73;2.87;;;50.20;26.40;48.90;101171;;;;561449;249;23197;-82
2023/05/31 09:49:15;;;;;;;30.02;3.65;;;50.20;26.40;49.30;101165;;;;572926;246;23203;-82
2023/05/31 09:51:43;;;;;;;9.05;2.22;;;50.40;26.60;49.30;101166;;;;562223;251;23122;-82
2023/05/31 09:54:11;;;;;;;2.78;2.00;;;50.60;26.50;49.60;101170;;;;561402;251;23117;-84
2023/05/31 09:56:39;;;;;;;2.20;1.80;;;50.90;26.60;49.10;101164;;;;561464;251;23176;-81
2023/05/31 09:59:10;;;;;;;9.18;2.60;;;50.70;26.20;48.30;101163;;;;561316;251;23199;-81
2023/05/31 10:01:38;;;;;;;19.05;3.15;;;49.80;26.80;48.60;101158;;;;561656;251;23122;-82
2023/05/31 10:04:06;;;;;;;12.32;2.90;;;50.00;26.90;49.50;101156;;;;572710;250;23120;-83
2023/05/31 10:06:40;;;;;;;3.50;1.92;;;50.70;26.50;49.30;101149;;;;561040;251;23182;-83
2023/05/31 10:08:58;;;;;;;35.38;4.47;;;50.80;26.10;48.90;101154;;;;560046;251;23142;-83
2023/05/31 10:11:26;;;;;;;12.75;2.20;;;50.40;26.50;48.60;101154;;;;559573;251;23160;-83
2023/05/31 10:13:54;;;;;;;3.55;2.17;;;50.00;26.50;48.00;101147;;;;561272;251;24159;-83
2023/05/31 10:16:22;;;;;;;7.65;2.50;;;49.60;26.60;46.80;101135;;;;560895;251;23138;-81
2023/05/31 10:18:50;;;;;;;3.15;1.77;;;48.40;26.70;45.50;101140;;;;561045;251;23125;-81
2023/05/31 10:21:24;;;;;;;25.02;4.12;;;47.10;27.10;44.00;101142;;;;561163;251;23195;-81
2023/05/31 10:24:10;;;;;;;8.10;3.08;;;45.60;27.80;43.20;101134;;;;560990;250;23118;-83
2023/05/31 10:27:05;;;;;;;7.22;2.53;;;44.70;28.30;43.00;101117;;;;563229;250;23156;-81
2023/05/31 10:29:45;;;;;;;6.22;1.62;;;44.10;29.10;42.70;101120;;;;576160;247;23130;-82
2023/05/31 10:32:17;;;;;;;35.30;4.95;;;42.90;29.40;41.40;101117;;;;566334;247;35233;-82
2023/05/31 10:34:45;;;;;;;11.57;2.50;;;42.80;29.40;40.10;101114;;;;561127;251;23176;-82
2023/05/31 10:37:16;;;;;;;44.30;5.47;;;41.60;30.10;39.70;101111;;;;565827;251;23215;-82
2023/05/31 10:39:59;;;;;;;25.50;2.97;;;40.70;31.30;39.10;101106;;;;561068;251;23137;-82
2023/05/31 10:42:45;;;;;;;17.50;3.25;;;39.80;32.20;38.20;101100;;;;556572;250;23192;-81
2023/05/31 10:45:16;;;;;;;15.23;3.10;;;38.60;32.40;36.90;101096;;;;556312;251;35500;-82
2023/05/31 10:47:46;;;;;;;28.10;4.72;;;37.30;33.50;35.90;101093;;;;561234;251;23191;-81
2023/05/31 10:50:20;;;;;;;10.02;2.92;;;36.10;34.20;34.70;101094;;;;559085;251;23169;-79
2023/05/31 10:52:48;;;;;;;5.10;2.25;;;35.00;35.20;33.40;101087;;;;561217;251;23200;-81
2023/05/31 10:55:25;;;;;;;7.22;2.37;;;33.80;36.00;32.30;101082;;;;572785;250;23147;-81
2023/05/31 10:57:50;;;;;;;30.05;3.22;;;32.70;37.20;31.20;101074;;;;572238;246;23129;-81
2023/05/31 11:00:25;;;;;;;27.30;3.30;;;31.60;38.60;30.50;101067;;;;562273;251;23130;-81
2023/05/31 11:02:49;;;;;;;16.95;2.87;;;30.80;39.80;29.80;101055;;;;561079;251;23118;-80
2023/05/31 11:05:24;;;;;;;10.75;2.33;;;30.10;40.40;29.20;101066;;;;562019;251;23163;-81
2023/05/31 11:07:50;;;;;;;32.08;4.72;;;29.40;41.00;28.60;101057;;;;561964;251;23141;-82
2023/05/31 11:10:30;;;;;;;11.27;2.45;;;28.80;42.10;28.10;101057;;;;566230;251;23156;-81
2023/05/31 11:12:58;;;;;;;6.13;1.90;;;27.70;42.30;27.30;101053;;;;562016;251;23281;-80
2023/05/31 11:15:26;;;;;;;14.33;2.70;;;27.60;42.70;26.80;101040;;;;566698;251;23162;-81